Time;durP1;ratioP1;P1;durP2;ratioP2;P2;SDS_P1;SDS_P2;PMS_P1;PMS_P2;Temp;Humidity;BMP_temperature;BMP_pressure;BME280_temperature;BME280_humidity;BME280_pressure;Samples;Min_cycle;Max_cycle;Signal;HPM_P1;HPM_P2
2022/04/26 03:37:38;;;;;;;;;;;19.00;99.90;;;;;;4881335;29;19959;-81
2022/04/26 03:40:05;;;;;;;;;;;19.20;99.90;;;;;;4881453;29;19915;-86
2022/04/26 03:42:32;;;;;;;;;;;19.20;99.90;;;;;;4880701;29;20261;-85
2022/04/26 03:44:58;;;;;;;;;;;19.20;99.90;;;;;;4881020;29;19912;-86
2022/04/26 03:47:25;;;;;;;;;;;19.20;99.90;;;;;;4881355;29;20328;-83
2022/04/26 03:49:51;;;;;;;;;;;19.20;99.90;;;;;;4881366;29;19912;-82
2022/04/26 03:52:19;;;;;;;;;;;19.20;99.90;;;;;;4881030;29;19970;-85
2022/04/26 03:54:46;;;;;;;;;;;19.20;99.90;;;;;;4881118;29;19918;-84
2022/04/26 03:57:13;;;;;;;;;;;19.10;99.90;;;;;;4881153;29;19912;-84
2022/04/26 03:59:39;;;;;;;;;;;19.20;99.90;;;;;;4880738;29;19919;-84
2022/04/26 04:02:06;;;;;;;;;;;19.20;99.90;;;;;;4881122;29;20294;-84
2022/04/26 04:04:33;;;;;;;;;;;19.20;99.90;;;;;;4880971;29;20018;-84
2022/04/26 04:07:00;;;;;;;;;;;19.20;99.90;;;;;;4880936;29;19912;-85
2022/04/26 04:09:26;;;;;;;;;;;19.20;99.90;;;;;;4881198;29;19986;-86
2022/04/26 04:11:53;;;;;;;;;;;19.20;99.90;;;;;;4880546;29;19920;-85
2022/04/26 04:14:20;;;;;;;;;;;19.30;99.90;;;;;;4880901;29;19912;-85
2022/04/26 04:16:46;;;;;;;;;;;19.30;99.90;;;;;;4880987;29;19912;-84
2022/04/26 04:19:19;;;;;;;;;;;19.20;99.90;;;;;;4880840;29;20386;-86
2022/04/26 04:21:46;;;;;;;;;;;19.20;99.90;;;;;;4880525;29;20059;-87
2022/04/26 04:24:13;;;;;;;;;;;19.20;99.90;;;;;;4880814;29;20387;-85
2022/04/26 04:26:40;;;;;;;;;;;19.20;99.90;;;;;;4880724;29;20379;-83
2022/04/26 04:29:08;;;;;;;;;;;19.30;99.90;;;;;;4880829;29;19912;-86
2022/04/26 04:31:35;;;;;;;;;;;19.30;99.90;;;;;;4880193;29;20360;-84
2022/04/26 04:34:02;;;;;;;;;;;19.40;99.90;;;;;;4880497;29;20359;-77
2022/04/26 04:36:29;;;;;;;;;;;19.40;99.90;;;;;;4880271;29;20007;-75
2022/04/26 04:38:56;;;;;;;;;;;19.40;99.90;;;;;;4880494;29;19919;-76
2022/04/26 04:41:23;;;;;;;;;;;19.40;99.90;;;;;;4880417;29;20025;-77
2022/04/26 04:43:50;;;;;;;;;;;19.40;99.90;;;;;;4880105;29;20423;-77
2022/04/26 04:46:16;;;;;;;;;;;19.40;99.90;;;;;;4864650;29;20332;-78
2022/04/26 04:48:43;;;;;;;;;;;19.40;99.90;;;;;;4877077;29;20376;-77
2022/04/26 04:51:10;;;;;;;;;;;19.30;99.90;;;;;;4877688;29;19923;-85
2022/04/26 04:53:37;;;;;;;;;;;19.30;99.90;;;;;;4880695;29;19912;-76
2022/04/26 04:56:04;;;;;;;;;;;19.30;99.90;;;;;;4879856;29;19968;-77
2022/04/26 04:58:32;;;;;;;;;;;19.30;99.90;;;;;;4863615;29;19912;-80
2022/04/26 05:00:59;;;;;;;;;;;19.30;99.90;;;;;;4879736;29;19947;-81
2022/04/26 05:03:25;;;;;;;;;;;19.30;99.90;;;;;;4879771;29;19920;-77
2022/04/26 05:05:52;;;;;;;;;;;19.20;99.90;;;;;;4879459;29;19919;-75
2022/04/26 05:08:19;;;;;;;;;;;19.30;99.90;;;;;;4879984;29;19912;-78
2022/04/26 05:10:45;;;;;;;;;;;19.30;99.90;;;;;;4879827;29;19998;-78
2022/04/26 05:13:12;;;;;;;;;;;19.30;99.90;;;;;;4863007;29;19923;-76
2022/04/26 05:15:39;;;;;;;;;;;19.30;99.90;;;;;;4879530;29;19912;-76
2022/04/26 05:18:06;;;;;;;;;;;19.40;99.90;;;;;;4879764;29;20036;-77
2022/04/26 05:20:32;;;;;;;;;;;19.30;99.90;;;;;;4879548;29;19911;-76
2022/04/26 05:25:45;;;;;;;;;;;19.30;99.90;;;;;;4879555;29;19950;-77
2022/04/26 05:28:12;;;;;;;;;;;19.30;99.90;;;;;;4879846;29;20048;-79
2022/04/26 05:30:38;;;;;;;;;;;19.30;99.90;;;;;;4879420;29;19998;-77
2022/04/26 05:33:05;;;;;;;;;;;19.30;99.90;;;;;;4879650;29;19924;-77
2022/04/26 05:35:32;;;;;;;;;;;19.30;99.90;;;;;;4878991;29;20374;-77
2022/04/26 05:37:58;;;;;;;;;;;19.40;99.90;;;;;;4879436;29;20333;-77
2022/04/26 05:40:25;;;;;;;;;;;19.40;99.90;;;;;;4879520;29;19971;-76
2022/04/26 05:42:51;;;;;;;;;;;19.40;99.90;;;;;;4879489;29;20002;-76
2022/04/26 05:45:18;;;;;;;;;;;19.40;99.90;;;;;;4879593;29;20011;-76
2022/04/26 05:47:45;;;;;;;;;;;19.30;99.90;;;;;;4879295;29;19972;-80
2022/04/26 05:50:12;;;;;;;;;;;19.30;99.90;;;;;;4879478;29;19947;-76
2022/04/26 05:52:39;;;;;;;;;;;19.30;99.90;;;;;;4879124;29;19956;-76
2022/04/26 05:55:07;;;;;;;;;;;19.30;99.90;;;;;;4878203;29;19916;-76
2022/04/26 05:57:38;;;;;;;;;;;19.30;99.90;;;;;;4879091;29;19911;-76
2022/04/26 06:00:06;;;;;;;;;;;19.20;99.90;;;;;;4879032;29;19948;-76
2022/04/26 06:02:33;;;;;;;;;;;19.20;99.90;;;;;;4879397;29;19935;-77
2022/04/26 06:04:59;;;;;;;;;;;19.20;99.90;;;;;;4878977;29;20018;-81
2022/04/26 06:07:27;;;;;;;;;;;19.20;99.90;;;;;;4881436;29;20316;-80
2022/04/26 06:09:55;;;;;;;;;;;19.20;99.90;;;;;;4882829;29;19934;-78
2022/04/26 06:12:26;;;;;;;;;;;19.20;99.90;;;;;;4882819;29;20018;-80
2022/04/26 06:14:53;;;;;;;;;;;19.10;99.90;;;;;;4882804;29;20366;-77
2022/04/26 06:17:20;;;;;;;;;;;19.10;99.90;;;;;;4882877;29;20356;-78
2022/04/26 06:19:47;;;;;;;;;;;19.00;99.90;;;;;;4882563;29;19912;-75
2022/04/26 06:22:13;;;;;;;;;;;19.20;99.90;;;;;;4882802;29;20392;-80
2022/04/26 06:24:40;;;;;;;;;;;19.20;99.90;;;;;;4882879;29;19950;-82
2022/04/26 06:27:07;;;;;;;;;;;19.20;99.90;;;;;;4882719;29;20279;-84
2022/04/26 06:29:34;;;;;;;;;;;19.20;99.90;;;;;;4882498;29;19919;-78
2022/04/26 06:32:01;;;;;;;;;;;19.20;99.90;;;;;;4882363;29;19924;-76
2022/04/26 06:34:27;;;;;;;;;;;19.20;99.90;;;;;;4882539;29;19912;-76
2022/04/26 06:36:54;;;;;;;;;;;19.10;99.90;;;;;;4882295;29;19912;-79
2022/04/26 06:39:21;;;;;;;;;;;19.10;99.90;;;;;;4882385;29;19912;-76
2022/04/26 06:41:48;;;;;;;;;;;19.10;99.90;;;;;;4881982;29;20342;-80
2022/04/26 06:44:14;;;;;;;;;;;19.00;99.90;;;;;;4882402;29;20025;-76
2022/04/26 06:46:41;;;;;;;;;;;19.10;99.90;;;;;;4881968;29;19947;-76
2022/04/26 06:49:08;;;;;;;;;;;19.00;99.90;;;;;;4881987;29;20368;-78
2022/04/26 06:51:38;;;;;;;;;;;18.90;99.90;;;;;;4880068;29;19924;-77
2022/04/26 06:54:05;;;;;;;;;;;18.90;99.90;;;;;;4880090;29;20375;-77
2022/04/26 06:56:31;;;;;;;;;;;18.90;99.90;;;;;;4879888;29;19919;-78
2022/04/26 06:58:58;;;;;;;;;;;18.80;99.90;;;;;;4879836;29;20332;-82
2022/04/26 07:01:25;;;;;;;;;;;18.70;99.90;;;;;;4879862;29;19916;-78
2022/04/26 07:03:51;;;;;;;;;;;18.70;99.90;;;;;;4879259;29;20257;-79
2022/04/26 07:06:18;;;;;;;;;;;18.70;99.90;;;;;;4879406;29;20363;-76
2022/04/26 07:08:45;;;;;;;;;;;18.70;99.90;;;;;;4879647;29;20315;-78
2022/04/26 07:11:11;;;;;;;;;;;18.80;99.90;;;;;;4879379;29;20023;-77
2022/04/26 07:13:38;;;;;;;;;;;18.80;99.90;;;;;;4879401;29;19923;-78
2022/04/26 07:16:05;;;;;;;;;;;18.80;99.90;;;;;;4879243;29;19923;-83
2022/04/26 07:18:33;;;;;;;;;;;18.70;99.90;;;;;;4878895;29;20000;-84
2022/04/26 07:21:00;;;;;;;;;;;18.70;99.90;;;;;;4879477;29;20051;-82
2022/04/26 07:23:27;;;;;;;;;;;18.60;99.90;;;;;;4879497;29;19919;-83
2022/04/26 07:25:55;;;;;;;;;;;18.60;99.90;;;;;;4879201;29;19916;-80
2022/04/26 07:28:22;;;;;;;;;;;18.60;99.90;;;;;;4879026;29;19919;-84
2022/04/26 07:30:49;;;;;;;;;;;18.50;99.90;;;;;;4879245;29;19919;-83
2022/04/26 07:36:00;;;;;;;;;;;18.50;99.90;;;;;;4879049;29;20406;-82
2022/04/26 07:38:27;;;;;;;;;;;18.50;99.90;;;;;;4879126;29;19959;-80
2022/04/26 07:40:54;;;;;;;;;;;18.60;99.90;;;;;;4879247;29;19916;-84
2022/04/26 07:43:21;;;;;;;;;;;18.60;99.90;;;;;;4878705;29;19916;-81
2022/04/26 07:45:48;;;;;;;;;;;18.50;99.90;;;;;;4878879;29;20435;-84
2022/04/26 07:48:16;;;;;;;;;;;18.50;99.90;;;;;;4879148;29;20063;-83
2022/04/26 07:50:47;;;;;;;;;;;18.50;99.90;;;;;;4878725;29;19919;-82
2022/04/26 07:53:13;;;;;;;;;;;18.50;99.90;;;;;;4878954;29;19919;-81
2022/04/26 07:55:40;;;;;;;;;;;18.50;99.90;;;;;;4878740;29;19912;-79
2022/04/26 07:58:07;;;;;;;;;;;18.40;99.90;;;;;;4878252;29;19999;-81
2022/04/26 08:00:35;;;;;;;;;;;18.40;99.90;;;;;;4878786;29;19912;-84
2022/04/26 08:03:02;;;;;;;;;;;18.30;99.90;;;;;;4878564;29;19916;-82
2022/04/26 08:05:31;;;;;;;;;;;18.30;99.90;;;;;;4878842;29;20427;-84
2022/04/26 08:07:58;;;;;;;;;;;18.30;99.90;;;;;;4878961;29;19922;-87
2022/04/26 08:10:25;;;;;;;;;;;18.10;99.90;;;;;;4879255;29;19915;-85
2022/04/26 08:12:52;;;;;;;;;;;17.90;99.90;;;;;;4880206;29;19924;-88
2022/04/26 08:15:19;;;;;;;;;;;17.90;99.90;;;;;;4879903;29;20010;-82
2022/04/26 08:17:48;;;;;;;;;;;17.80;99.90;;;;;;4879219;29;19912;-88
2022/04/26 08:20:14;;;;;;;;;;;17.70;99.90;;;;;;4879673;29;19959;-85
2022/04/26 08:22:41;;;;;;;;;;;17.60;99.90;;;;;;4879410;29;20388;-85
2022/04/26 08:27:52;;;;;;;;;;;17.60;99.90;;;;;;4879728;29;19929;-82
2022/04/26 08:30:19;;;;;;;;;;;17.50;99.90;;;;;;4878297;29;20025;-76
2022/04/26 08:32:47;;;;;;;;;;;17.50;99.90;;;;;;4878816;29;19924;-82
2022/04/26 08:35:16;;;;;;;;;;;17.40;99.90;;;;;;4878710;29;20010;-85
2022/04/26 08:37:46;;;;;;;;;;;17.40;99.90;;;;;;4877247;29;19916;-80
2022/04/26 08:40:12;;;;;;;;;;;17.40;99.90;;;;;;4879004;29;19947;-77
2022/04/26 08:42:51;;;;;;;;;;;17.40;99.90;;;;;;4878987;29;19960;-84
2022/04/26 08:45:21;;;;;;;;;;;17.40;99.90;;;;;;4878725;29;19912;-80
2022/04/26 08:53:20;;;;;;;;;;;17.40;99.90;;;;;;4878132;29;20007;-78
2022/04/26 08:55:48;;;;;;;;;;;17.50;99.90;;;;;;4878356;29;20308;-89
2022/04/26 08:58:18;;;;;;;;;;;17.50;99.90;;;;;;4879270;29;20420;-86
2022/04/26 09:01:06;;;;;;;;;;;17.60;99.90;;;;;;4879356;29;19915;-90
2022/04/26 09:03:36;;;;;;;;;;;17.60;99.90;;;;;;4879080;29;20311;-90
2022/04/26 09:06:11;;;;;;;;;;;17.60;99.90;;;;;;4881218;29;19919;-87
2022/04/26 09:08:42;;;;;;;;;;;17.60;99.90;;;;;;4880986;29;19912;-81
2022/04/26 09:11:27;;;;;;;;;;;17.60;99.90;;;;;;4880358;29;19951;-86
2022/04/26 09:13:55;;;;;;;;;;;17.60;99.90;;;;;;4878301;29;19916;-85
2022/04/26 09:16:22;;;;;;;;;;;17.50;99.90;;;;;;4862144;29;19916;-87
2022/04/26 09:18:53;;;;;;;;;;;17.60;99.90;;;;;;4861571;29;19912;-77
2022/04/26 09:21:20;;;;;;;;;;;17.50;99.90;;;;;;4861104;29;20311;-83
2022/04/26 09:23:47;;;;;;;;;;;17.60;99.90;;;;;;4860637;29;19916;-80
2022/04/26 09:26:15;;;;;;;;;;;17.60;99.90;;;;;;4861299;29;20376;-78
2022/04/26 09:28:47;;;;;;;;;;;17.70;99.90;;;;;;4861019;29;19917;-78
2022/04/26 09:31:21;;;;;;;;;;;17.70;99.90;;;;;;4861067;29;19923;-78
2022/04/26 09:33:49;;;;;;;;;;;17.70;99.90;;;;;;4860823;29;19916;-78
2022/04/26 09:36:18;;;;;;;;;;;17.70;99.90;;;;;;4860900;29;19916;-84
2022/04/26 09:39:10;;;;;;;;;;;17.70;99.90;;;;;;4860704;29;19916;-83
2022/04/26 09:41:38;;;;;;;;;;;17.70;99.90;;;;;;4857158;29;19920;-82
2022/04/26 09:44:06;;;;;;;;;;;17.70;99.90;;;;;;4859272;29;20015;-86
2022/04/26 09:46:41;;;;;;;;;;;17.70;99.90;;;;;;4859240;29;19912;-83
2022/04/26 09:49:11;;;;;;;;;;;17.70;99.90;;;;;;4859232;29;19916;-78
2022/04/26 09:51:38;;;;;;;;;;;17.70;99.90;;;;;;4858996;29;20344;-80
2022/04/26 09:54:05;;;;;;;;;;;17.70;99.90;;;;;;4859016;29;20299;-77
2022/04/26 09:56:32;;;;;;;;;;;17.70;99.90;;;;;;4859311;29;19912;-85
2022/04/26 09:58:59;;;;;;;;;;;17.70;99.90;;;;;;4859224;29;20396;-78
2022/04/26 10:01:36;;;;;;;;;;;17.60;99.90;;;;;;4859616;29;19943;-86
2022/04/26 10:04:03;;;;;;;;;;;17.60;99.90;;;;;;4859053;29;20356;-86
2022/04/26 10:06:37;;;;;;;;;;;17.70;99.90;;;;;;4859370;29;19912;-77
2022/04/26 10:09:04;;;;;;;;;;;17.70;99.90;;;;;;4859013;29;19917;-85
2022/04/26 10:11:31;;;;;;;;;;;17.70;99.90;;;;;;4859624;29;19967;-86
2022/04/26 10:14:00;;;;;;;;;;;17.70;99.90;;;;;;4860057;29;19945;-85
2022/04/26 10:16:27;;;;;;;;;;;17.70;99.90;;;;;;4859857;29;20372;-83
2022/04/26 10:19:14;;;;;;;;;;;17.70;99.90;;;;;;4859538;29;19969;-89
2022/04/26 10:21:40;;;;;;;;;;;17.70;99.90;;;;;;4859497;29;19945;-82
2022/04/26 10:24:13;;;;;;;;;;;17.70;99.90;;;;;;4859703;29;19920;-83
2022/04/26 10:26:40;;;;;;;;;;;17.70;99.90;;;;;;4859533;29;20023;-91
2022/04/26 10:29:10;;;;;;;;;;;17.70;99.90;;;;;;4859324;29;20337;-90
2022/04/26 10:31:37;;;;;;;;;;;17.70;99.90;;;;;;4857836;29;19985;-83
2022/04/26 10:34:17;;;;;;;;;;;17.70;99.90;;;;;;4859043;29;19912;-82
2022/04/26 10:36:48;;;;;;;;;;;17.70;99.90;;;;;;4859724;29;19913;-78
2022/04/26 10:39:15;;;;;;;;;;;17.70;99.90;;;;;;4859406;29;19912;-87
2022/04/26 10:41:42;;;;;;;;;;;17.70;99.90;;;;;;4859183;29;19920;-85
2022/04/26 10:44:23;;;;;;;;;;;17.70;99.90;;;;;;4859892;29;19912;-87
2022/04/26 10:46:58;;;;;;;;;;;17.70;99.90;;;;;;4859301;29;19912;-84
2022/04/26 10:49:44;;;;;;;;;;;17.70;99.90;;;;;;4859359;29;19916;-84
2022/04/26 10:52:23;;;;;;;;;;;17.70;99.90;;;;;;4859696;29;19920;-82
2022/04/26 10:54:58;;;;;;;;;;;17.60;99.90;;;;;;4862612;29;19977;-78
2022/04/26 10:57:26;;;;;;;;;;;17.60;99.90;;;;;;4862591;29;19917;-86
2022/04/26 10:59:56;;;;;;;;;;;17.50;99.90;;;;;;4861933;29;19919;-76
2022/04/26 11:02:25;;;;;;;;;;;17.40;99.90;;;;;;4862229;29;19951;-87
2022/04/26 11:05:04;;;;;;;;;;;17.40;99.90;;;;;;4861490;29;20006;-82
2022/04/26 11:07:31;;;;;;;;;;;17.50;99.90;;;;;;4861640;29;19916;-79
2022/04/26 11:09:59;;;;;;;;;;;17.50;99.90;;;;;;4861040;29;19998;-79
2022/04/26 11:12:29;;;;;;;;;;;17.50;99.90;;;;;;4861272;29;19929;-75
2022/04/26 11:14:57;;;;;;;;;;;17.50;99.90;;;;;;4861582;29;19916;-82
2022/04/26 11:17:24;;;;;;;;;;;17.50;99.90;;;;;;4862252;29;20280;-78
2022/04/26 11:19:53;;;;;;;;;;;17.60;99.90;;;;;;4863721;29;19968;-79
2022/04/26 11:22:20;;;;;;;;;;;17.60;99.90;;;;;;4861767;29;19935;-89
2022/04/26 11:30:45;;;;;;;;;;;17.40;99.90;;;;;;4861803;29;20287;-82
2022/04/26 11:33:11;;;;;;;;;;;17.30;99.90;;;;;;4862018;29;19924;-83
2022/04/26 11:35:39;;;;;;;;;;;17.30;99.90;;;;;;4861659;29;20043;-82
2022/04/26 11:38:10;;;;;;;;;;;17.20;99.90;;;;;;4844653;29;19963;-86
2022/04/26 11:40:38;;;;;;;;;;;17.20;99.90;;;;;;4861151;29;19916;-82
2022/04/26 11:43:15;;;;;;;;;;;17.20;99.90;;;;;;4861889;29;19927;-87
2022/04/26 11:45:44;;;;;;;;;;;17.20;99.90;;;;;;4860893;29;19963;-76
2022/04/26 11:48:12;;;;;;;;;;;17.20;99.90;;;;;;4859532;29;20376;-75
2022/04/26 11:50:39;;;;;;;;;;;17.20;99.90;;;;;;4860673;29;19916;-75
2022/04/26 11:53:07;;;;;;;;;;;17.20;99.90;;;;;;4859741;29;19991;-78
2022/04/26 11:55:33;;;;;;;;;;;17.10;99.90;;;;;;4862166;29;20424;-75
2022/04/26 11:58:21;;;;;;;;;;;17.20;99.90;;;;;;4860527;29;19917;-76
2022/04/26 12:01:09;;;;;;;;;;;17.20;99.90;;;;;;4860708;29;20291;-81
2022/04/26 12:03:46;;;;;;;;;;;17.20;99.90;;;;;;4860112;29;20359;-74
2022/04/26 12:06:14;;;;;;;;;;;17.20;99.90;;;;;;4861546;29;19932;-75
2022/04/26 12:08:48;;;;;;;;;;;17.20;99.90;;;;;;4861017;29;19948;-75
2022/04/26 12:11:18;;;;;;;;;;;17.20;99.90;;;;;;4865619;29;19923;-77
2022/04/26 12:13:45;;;;;;;;;;;17.20;99.90;;;;;;4872695;29;20390;-83
2022/04/26 12:16:19;;;;;;;;;;;17.10;99.90;;;;;;4860753;29;19969;-83
2022/04/26 12:18:49;;;;;;;;;;;17.00;99.90;;;;;;4860051;29;19916;-79
2022/04/26 12:21:17;;;;;;;;;;;17.10;99.90;;;;;;4860566;29;19951;-80
2022/04/26 12:23:44;;;;;;;;;;;17.00;99.90;;;;;;4859633;29;19913;-83
2022/04/26 12:26:11;;;;;;;;;;;17.10;99.90;;;;;;4860689;29;19912;-87
2022/04/26 12:28:47;;;;;;;;;;;17.10;99.90;;;;;;4860306;29;19916;-85
2022/04/26 12:31:33;;;;;;;;;;;17.20;99.90;;;;;;4859733;29;19916;-85
2022/04/26 12:34:12;;;;;;;;;;;17.20;99.90;;;;;;4860247;29;19916;-75
2022/04/26 12:36:52;;;;;;;;;;;17.10;99.90;;;;;;4860433;29;19913;-91
2022/04/26 12:39:19;;;;;;;;;;;17.20;99.90;;;;;;4859420;29;20292;-85
2022/04/26 12:41:47;;;;;;;;;;;17.30;99.90;;;;;;4859669;29;19912;-82
2022/04/26 12:44:14;;;;;;;;;;;17.30;99.90;;;;;;4859477;29;20357;-81
2022/04/26 12:46:47;;;;;;;;;;;17.30;99.90;;;;;;4859674;29;20006;-82
2022/04/26 12:51:59;;;;;;;;;;;17.30;99.90;;;;;;4859631;29;19943;-88
2022/04/26 12:54:25;;;;;;;;;;;17.30;99.90;;;;;;4859355;29;20143;-86
2022/04/26 12:57:03;;;;;;;;;;;17.40;99.90;;;;;;4859316;29;19916;-79
2022/04/26 12:59:36;;;;;;;;;;;17.30;99.90;;;;;;4859801;29;19912;-78
2022/04/26 13:02:03;;;;;;;;;;;17.30;99.90;;;;;;4859727;29;19912;-84
2022/04/26 13:04:29;;;;;;;;;;;17.30;99.90;;;;;;4859357;29;19931;-79
2022/04/26 13:06:56;;;;;;;;;;;17.30;99.90;;;;;;4859147;29;19916;-88
2022/04/26 13:09:23;;;;;;;;;;;17.30;99.90;;;;;;4860074;29;19943;-89
2022/04/26 13:11:54;;;;;;;;;;;17.40;99.90;;;;;;4859136;29;19948;-77
2022/04/26 13:14:20;;;;;;;;;;;17.40;99.90;;;;;;4859866;29;19912;-82
2022/04/26 13:16:48;;;;;;;;;;;17.30;99.90;;;;;;4859834;29;19920;-88
2022/04/26 13:19:15;;;;;;;;;;;17.40;99.90;;;;;;4859037;29;19943;-81
2022/04/26 13:21:42;;;;;;;;;;;17.40;99.90;;;;;;4859477;29;20440;-82
2022/04/26 13:24:08;;;;;;;;;;;17.30;99.90;;;;;;4858446;29;19920;-82
2022/04/26 13:26:36;;;;;;;;;;;17.20;99.90;;;;;;4859690;29;19945;-82
2022/04/26 13:29:03;;;;;;;;;;;17.10;99.90;;;;;;4859353;29;19939;-75
2022/04/26 13:31:31;;;;;;;;;;;17.10;99.90;;;;;;4858975;29;19917;-76
2022/04/26 13:33:58;;;;;;;;;;;17.00;99.90;;;;;;4858957;29;20010;-76
2022/04/26 13:36:27;;;;;;;;;;;17.00;99.90;;;;;;4858905;29;20198;-76
2022/04/26 13:38:55;;;;;;;;;;;17.00;99.90;;;;;;4859208;29;19920;-76
2022/04/26 13:41:22;;;;;;;;;;;17.00;99.90;;;;;;4859178;29;19912;-76
2022/04/26 13:43:49;;;;;;;;;;;17.00;99.90;;;;;;4858691;29;19912;-75
2022/04/26 13:46:16;;;;;;;;;;;17.00;99.90;;;;;;4858842;29;19916;-76
2022/04/26 13:48:42;;;;;;;;;;;17.00;99.90;;;;;;4858864;29;19913;-75
2022/04/26 13:51:09;;;;;;;;;;;17.00;99.90;;;;;;4858662;29;19927;-75
2022/04/26 13:53:35;;;;;;;;;;;17.10;99.90;;;;;;4858863;29;19924;-75
2022/04/26 13:56:06;;;;;;;;;;;17.00;99.90;;;;;;4858984;29;19968;-75
2022/04/26 13:58:33;;;;;;;;;;;17.10;99.90;;;;;;4858969;29;19916;-75
2022/04/26 14:00:59;;;;;;;;;;;17.10;99.90;;;;;;4858908;29;20034;-76
2022/04/26 14:03:27;;;;;;;;;;;17.10;99.90;;;;;;4858191;29;19987;-79
2022/04/26 14:05:55;;;;;;;;;;;17.10;99.90;;;;;;4858632;29;19923;-75
2022/04/26 14:08:21;;;;;;;;;;;17.10;99.90;;;;;;4858850;29;20007;-75
2022/04/26 14:10:48;;;;;;;;;;;17.00;99.90;;;;;;4858776;29;20312;-75
2022/04/26 14:13:14;;;;;;;;;;;17.00;99.90;;;;;;4858623;29;19924;-75
2022/04/26 14:23:55;;;;;;;;;;;17.00;99.90;;;;;;4858662;29;19923;-74
2022/04/26 14:26:22;;;;;;;;;;;17.10;99.90;;;;;;4858733;29;19916;-74
2022/04/26 14:28:49;;;;;;;;;;;17.00;99.90;;;;;;4861030;29;20372;-75
2022/04/26 14:31:15;;;;;;;;;;;17.00;99.90;;;;;;4862040;29;19920;-75
2022/04/26 14:33:42;;;;;;;;;;;17.00;99.90;;;;;;4861811;29;19917;-74
2022/04/26 14:36:08;;;;;;;;;;;17.00;99.90;;;;;;4862024;29;19984;-74
2022/04/26 14:38:35;;;;;;;;;;;17.00;99.90;;;;;;4861886;29;19975;-75
2022/04/26 14:41:02;;;;;;;;;;;17.00;99.90;;;;;;4861914;29;20395;-75
2022/04/26 14:43:28;;;;;;;;;;;17.00;99.90;;;;;;4861728;29;19987;-75
2022/04/26 14:45:55;;;;;;;;;;;16.90;99.90;;;;;;4861943;29;20413;-77
2022/04/26 14:48:23;;;;;;;;;;;16.90;99.90;;;;;;4861735;29;19923;-76
2022/04/26 14:50:50;;;;;;;;;;;16.90;99.90;;;;;;4861954;29;20014;-77
2022/04/26 14:53:18;;;;;;;;;;;17.00;99.90;;;;;;4861725;29;19924;-75
2022/04/26 14:55:45;;;;;;;;;;;16.90;99.90;;;;;;4861362;29;19972;-82
2022/04/26 14:58:14;;;;;;;;;;;17.00;99.90;;;;;;4861956;29;19968;-75
2022/04/26 15:00:41;;;;;;;;;;;16.90;99.90;;;;;;4861763;29;19920;-76
2022/04/26 15:03:08;;;;;;;;;;;16.90;99.90;;;;;;4861770;29;19923;-83
2022/04/26 15:05:35;;;;;;;;;;;16.90;99.90;;;;;;4861990;29;19927;-75
2022/04/26 15:10:46;;;;;;;;;;;16.90;99.90;;;;;;4861876;29;20472;-75
2022/04/26 15:18:42;;;;;;;;;;;16.80;99.90;;;;;;4861688;29;19961;-75
2022/04/26 15:21:09;;;;;;;;;;;16.70;99.90;;;;;;4860801;29;20444;-75
2022/04/26 15:23:35;;;;;;;;;;;16.80;99.90;;;;;;4861142;29;19959;-75
2022/04/26 15:26:06;;;;;;;;;;;16.70;99.90;;;;;;4861078;29;19916;-75
2022/04/26 15:28:36;;;;;;;;;;;16.70;99.90;;;;;;4861143;29;19917;-77
2022/04/26 15:31:03;;;;;;;;;;;16.70;99.90;;;;;;4861068;29;20007;-75
2022/04/26 15:33:29;;;;;;;;;;;16.70;99.90;;;;;;4860910;29;20308;-75
2022/04/26 15:35:59;;;;;;;;;;;16.70;99.90;;;;;;4860803;29;19952;-77
2022/04/26 15:38:29;;;;;;;;;;;16.70;99.90;;;;;;4860794;29;19916;-75
2022/04/26 15:41:01;;;;;;;;;;;16.60;99.90;;;;;;4860869;29;19920;-75
2022/04/26 15:43:30;;;;;;;;;;;16.60;99.90;;;;;;4861025;29;19919;-75
2022/04/26 15:45:56;;;;;;;;;;;16.50;99.90;;;;;;4860811;29;19921;-75
2022/04/26 15:48:24;;;;;;;;;;;16.50;99.90;;;;;;4858963;29;20321;-74
2022/04/26 15:50:51;;;;;;;;;;;16.50;99.90;;;;;;4860757;29;19936;-75
2022/04/26 15:53:17;;;;;;;;;;;16.50;99.90;;;;;;4860683;29;19920;-74
2022/04/26 15:55:45;;;;;;;;;;;16.50;99.90;;;;;;4860488;29;19919;-75
2022/04/26 15:58:11;;;;;;;;;;;16.50;99.90;;;;;;4860585;29;19912;-75
2022/04/26 16:00:38;;;;;;;;;;;16.50;99.90;;;;;;4860362;29;19972;-74
2022/04/26 16:03:05;;;;;;;;;;;16.60;99.90;;;;;;4860291;29;19928;-77
2022/04/26 16:05:32;;;;;;;;;;;16.60;99.90;;;;;;4860444;29;20288;-79
2022/04/26 16:07:59;;;;;;;;;;;16.60;99.90;;;;;;4860524;29;19916;-77
2022/04/26 16:21:25;;;;;;;;;;;16.60;99.90;;;;;;4860416;29;19961;-75
2022/04/26 16:23:56;;;;;;;;;;;16.70;99.90;;;;;;4860022;29;19963;-74
2022/04/26 16:26:23;;;;;;;;;;;16.70;99.90;;;;;;4859821;29;19948;-74
2022/04/26 16:28:53;;;;;;;;;;;16.60;99.90;;;;;;4859117;29;20284;-79
2022/04/26 16:31:30;;;;;;;;;;;16.70;99.90;;;;;;4860160;29;19941;-78
2022/04/26 16:33:57;;;;;;;;;;;16.70;99.90;;;;;;4859933;29;20301;-79
2022/04/26 16:36:25;;;;;;;;;;;16.70;99.90;;;;;;4861983;29;20368;-75
2022/04/26 16:38:52;;;;;;;;;;;16.70;99.90;;;;;;4861967;29;19913;-80
2022/04/26 16:41:19;;;;;;;;;;;16.70;99.90;;;;;;4862011;29;19919;-79
2022/04/26 16:43:47;;;;;;;;;;;16.80;99.90;;;;;;4861853;29;19960;-75
2022/04/26 16:46:19;;;;;;;;;;;16.80;99.90;;;;;;4861836;29;19913;-75
2022/04/26 16:48:46;;;;;;;;;;;16.80;99.90;;;;;;4861528;29;19919;-75
2022/04/26 16:51:14;;;;;;;;;;;16.80;99.90;;;;;;4861247;29;20430;-75
2022/04/26 16:53:44;;;;;;;;;;;16.70;99.90;;;;;;4861516;29;19916;-75
2022/04/26 16:56:11;;;;;;;;;;;16.80;99.90;;;;;;4861647;29;19972;-76
2022/04/26 16:58:38;;;;;;;;;;;16.80;99.90;;;;;;4861570;29;19916;-75
2022/04/26 17:01:05;;;;;;;;;;;16.80;99.90;;;;;;4861534;29;20384;-75
2022/04/26 17:03:32;;;;;;;;;;;16.90;99.90;;;;;;4861177;29;19931;-78
2022/04/26 17:05:58;;;;;;;;;;;16.90;99.90;;;;;;4861541;29;19912;-75
2022/04/26 17:08:25;;;;;;;;;;;16.90;99.90;;;;;;4861408;29;19923;-75
2022/04/26 17:10:53;;;;;;;;;;;16.90;99.90;;;;;;4861550;29;19912;-75
2022/04/26 17:13:21;;;;;;;;;;;16.90;99.90;;;;;;4859331;29;21460;-75
2022/04/26 17:15:48;;;;;;;;;;;16.80;99.90;;;;;;4861204;29;19919;-75
2022/04/26 17:18:15;;;;;;;;;;;16.70;99.90;;;;;;4861148;29;19944;-75
2022/04/26 17:20:42;;;;;;;;;;;16.60;99.90;;;;;;4861456;29;19912;-75
2022/04/26 17:23:10;;;;;;;;;;;16.60;99.90;;;;;;4861396;29;19912;-75
2022/04/26 17:25:37;;;;;;;;;;;16.60;99.90;;;;;;4861051;29;19912;-78
2022/04/26 17:28:07;;;;;;;;;;;16.60;99.90;;;;;;4861384;29;19912;-75
2022/04/26 17:30:34;;;;;;;;;;;16.50;99.90;;;;;;4860022;29;19912;-75
2022/04/26 17:33:00;;;;;;;;;;;16.50;99.90;;;;;;4860939;29;19920;-75
2022/04/26 17:35:27;;;;;;;;;;;16.50;99.90;;;;;;4861271;29;20265;-75
2022/04/26 17:37:54;;;;;;;;;;;16.50;99.90;;;;;;4860953;29;19912;-75
2022/04/26 17:40:21;;;;;;;;;;;16.40;99.90;;;;;;4861060;29;19955;-75
2022/04/26 17:42:48;;;;;;;;;;;16.40;99.90;;;;;;4861185;29;19913;-76
2022/04/26 17:45:14;;;;;;;;;;;16.40;99.90;;;;;;4861132;29;20363;-79
2022/04/26 17:47:41;;;;;;;;;;;16.40;99.90;;;;;;4860642;29;20337;-77
2022/04/26 17:50:08;;;;;;;;;;;16.40;99.90;;;;;;4861077;29;19918;-76
2022/04/26 17:56:28;;;;;;;;;;;16.40;99.90;;;;;;4861116;29;19924;-75
2022/04/26 17:58:06;;;;;;;;;;;16.30;99.90;;;;;;4861584;29;19927;-87
2022/04/26 18:00:33;;;;;;;;;;;16.30;99.90;;;;;;4861393;29;19961;-87
2022/04/26 18:03:00;;;;;;;;;;;16.30;99.90;;;;;;4862504;29;19927;-74
2022/04/26 18:05:27;;;;;;;;;;;16.20;99.90;;;;;;4864578;29;20307;-74
2022/04/26 18:07:54;;;;;;;;;;;16.30;99.90;;;;;;4864519;29;19916;-74
2022/04/26 18:10:21;;;;;;;;;;;16.30;99.90;;;;;;4864629;29;19912;-74
2022/04/26 18:12:49;;;;;;;;;;;16.30;99.90;;;;;;4864484;29;19976;-74
2022/04/26 18:15:16;;;;;;;;;;;16.30;99.90;;;;;;4864456;29;19967;-74
2022/04/26 18:17:42;;;;;;;;;;;16.30;99.90;;;;;;4863998;29;19913;-75
2022/04/26 18:20:09;;;;;;;;;;;16.30;99.90;;;;;;4864534;29;19913;-75
2022/04/26 18:22:37;;;;;;;;;;;16.30;99.90;;;;;;4864407;29;20356;-75
2022/04/26 18:25:04;;;;;;;;;;;16.30;99.90;;;;;;4864373;29;19912;-75
2022/04/26 18:27:30;;;;;;;;;;;16.30;99.90;;;;;;4864065;29;19991;-76
2022/04/26 18:29:57;;;;;;;;;;;16.30;99.90;;;;;;4864279;29;19984;-74
2022/04/26 18:32:24;;;;;;;;;;;16.30;99.90;;;;;;4864025;29;19967;-74
2022/04/26 18:34:50;;;;;;;;;;;16.30;99.90;;;;;;4864102;29;19916;-80
2022/04/26 18:37:17;;;;;;;;;;;16.30;99.90;;;;;;4864105;29;20317;-78
2022/04/26 18:39:44;;;;;;;;;;;16.30;99.90;;;;;;4862785;29;20368;-75
2022/04/26 18:42:11;;;;;;;;;;;16.30;99.90;;;;;;4863928;29;20326;-79
2022/04/26 18:44:40;;;;;;;;;;;16.40;99.90;;;;;;4864050;29;19912;-81
2022/04/26 18:47:07;;;;;;;;;;;16.40;99.90;;;;;;4863743;29;20480;-75
2022/04/26 18:49:35;;;;;;;;;;;16.50;99.90;;;;;;4863623;29;19916;-75
2022/04/26 18:52:02;;;;;;;;;;;16.50;99.90;;;;;;4863702;29;19977;-75